createdAt,value
2022-08-17T00:00:35.006Z,40.22
2022-08-17T00:01:51.954Z,40.20
2022-08-17T00:03:05.725Z,40.30
2022-08-17T00:04:14.642Z,40.33
2022-08-17T00:05:25.139Z,40.11
2022-08-17T00:06:33.380Z,40.00
2022-08-17T00:07:41.170Z,39.96
2022-08-17T00:08:52.423Z,40.03
2022-08-17T00:09:58.931Z,40.10
2022-08-17T00:11:08.303Z,40.16
2022-08-17T00:12:43.431Z,40.06
2022-08-17T00:13:47.091Z,40.05
2022-08-17T00:14:55.375Z,40.01
2022-08-17T00:16:05.101Z,40.04
2022-08-17T00:17:11.307Z,39.99
2022-08-17T00:19:00.937Z,39.74
2022-08-17T00:19:45.171Z,39.82
2022-08-17T00:20:52.444Z,39.89
2022-08-17T00:22:31.360Z,39.87
2022-08-17T00:23:29.542Z,39.96
2022-08-17T00:24:36.930Z,39.87
2022-08-17T00:25:46.964Z,39.88
2022-08-17T00:26:54.040Z,39.86
2022-08-17T00:28:02.578Z,39.81
2022-08-17T00:29:08.679Z,39.71
2022-08-17T00:30:17.367Z,39.69
2022-08-17T00:31:25.038Z,39.81
2022-08-17T00:33:15.071Z,39.89
2022-08-17T00:33:59.412Z,39.81
2022-08-17T00:35:09.187Z,39.62
2022-08-17T00:36:15.741Z,39.62
2022-08-17T00:37:22.094Z,39.60
2022-08-17T00:38:29.077Z,39.54
2022-08-17T00:39:37.999Z,39.48
2022-08-17T00:40:55.843Z,39.50
2022-08-17T00:42:17.432Z,39.51
2022-08-17T00:43:42.231Z,39.32
2022-08-17T00:44:51.282Z,39.30
2022-08-17T00:45:57.844Z,39.30
2022-08-17T00:47:04.479Z,39.31
2022-08-17T00:48:29.882Z,39.33
2022-08-17T00:49:40.161Z,39.29
2022-08-17T00:51:00.024Z,39.25
2022-08-17T00:52:12.204Z,39.05
2022-08-17T00:53:20.901Z,39.12
2022-08-17T00:54:41.896Z,39.15
2022-08-17T00:55:51.548Z,39.15
2022-08-17T00:57:00.304Z,38.98
2022-08-17T00:58:08.415Z,38.75
2022-08-17T00:59:15.770Z,38.87
2022-08-17T01:00:35.140Z,38.78
2022-08-17T01:01:46.885Z,38.54
2022-08-17T01:02:57.669Z,38.36
2022-08-17T01:04:06.193Z,38.36
2022-08-17T01:05:26.499Z,38.23
2022-08-17T01:06:37.697Z,38.17
2022-08-17T01:07:46.406Z,38.18
2022-08-17T01:08:57.513Z,38.14
2022-08-17T01:10:58.953Z,37.95
2022-08-17T01:11:41.760Z,37.85
2022-08-17T01:12:50.189Z,37.77
2022-08-17T01:13:57.114Z,37.75
2022-08-17T01:15:02.994Z,37.74
2022-08-17T01:16:27.629Z,37.59
2022-08-17T01:17:34.271Z,37.53
2022-08-17T01:18:40.451Z,37.54
2022-08-17T01:19:46.851Z,37.48
2022-08-17T01:20:54.897Z,37.36
2022-08-17T01:22:13.570Z,37.25
2022-08-17T01:23:21.701Z,37.20
2022-08-17T01:24:33.702Z,37.09
2022-08-17T01:25:43.083Z,37.09
2022-08-17T01:26:50.997Z,37.07
2022-08-17T01:27:58.116Z,36.89
2022-08-17T01:29:06.371Z,36.83
2022-08-17T01:30:58.091Z,36.80
2022-08-17T01:31:48.357Z,36.54
2022-08-17T01:32:56.402Z,36.30
2022-08-17T01:34:03.893Z,36.10
2022-08-17T01:35:11.576Z,35.98
2022-08-17T01:36:17.431Z,35.78
2022-08-17T01:37:29.613Z,35.69
2022-08-17T01:38:40.068Z,35.60
2022-08-17T01:39:53.609Z,35.65
2022-08-17T01:41:06.032Z,35.65
2022-08-17T01:42:25.695Z,35.59
2022-08-17T01:43:48.318Z,35.54
2022-08-17T01:45:00.231Z,35.49
2022-08-17T01:46:08.891Z,35.46
2022-08-17T01:47:14.771Z,35.34
2022-08-17T01:48:22.203Z,35.29
2022-08-17T01:49:29.117Z,35.23
2022-08-17T01:50:41.600Z,35.18
2022-08-17T01:51:49.230Z,35.21
2022-08-17T01:53:01.677Z,35.25
2022-08-17T01:54:12.037Z,35.16
2022-08-17T01:55:19.190Z,35.14
2022-08-17T01:56:30.051Z,35.05
2022-08-17T01:57:36.978Z,35.03
2022-08-17T01:58:45.945Z,34.93
2022-08-17T01:59:55.356Z,34.90
2022-08-17T02:01:03.462Z,34.81
2022-08-17T02:02:11.883Z,34.73
2022-08-17T02:03:37.642Z,34.66
2022-08-17T02:04:44.534Z,34.47
2022-08-17T02:05:50.899Z,34.32
2022-08-17T02:06:58.003Z,34.28
2022-08-17T02:08:05.291Z,34.18
2022-08-17T02:09:16.866Z,34.11
2022-08-17T02:10:24.846Z,33.98
2022-08-17T02:11:40.895Z,33.87
2022-08-17T02:12:48.313Z,33.73
2022-08-17T02:14:02.485Z,33.64
2022-08-17T02:15:13.026Z,33.46
2022-08-17T02:16:20.850Z,33.34
2022-08-17T02:17:28.722Z,33.23
2022-08-17T02:18:40.333Z,33.04
2022-08-17T02:19:48.609Z,32.95
2022-08-17T02:20:58.712Z,32.82
2022-08-17T02:22:06.298Z,32.63
2022-08-17T02:23:13.693Z,32.50
2022-08-17T02:24:59.731Z,32.38
2022-08-17T02:25:55.109Z,32.25
2022-08-17T02:27:02.698Z,32.07
2022-08-17T02:28:11.896Z,32.04
2022-08-17T02:29:18.411Z,31.97
2022-08-17T02:30:59.778Z,31.91
2022-08-17T02:31:56.610Z,31.79
2022-08-17T02:33:04.029Z,31.70
2022-08-17T02:34:13.761Z,31.62
2022-08-17T02:35:19.770Z,31.54
2022-08-17T02:36:30.414Z,31.48
2022-08-17T02:37:39.110Z,31.41
2022-08-17T02:38:47.706Z,31.36
2022-08-17T02:39:58.535Z,31.27
2022-08-17T02:41:05.669Z,31.21
2022-08-17T02:42:15.263Z,31.13
2022-08-17T02:43:22.581Z,31.07
2022-08-17T02:44:35.447Z,31.02
2022-08-17T02:45:50.950Z,30.96
2022-08-17T02:47:00.084Z,30.91
2022-08-17T02:48:07.736Z,30.85
2022-08-17T02:49:16.535Z,30.80
2022-08-17T02:50:25.708Z,30.76
2022-08-17T02:51:33.290Z,30.71
2022-08-17T02:52:48.873Z,30.67
2022-08-17T02:54:39.078Z,30.59
2022-08-17T02:55:41.143Z,30.50
2022-08-17T02:56:51.067Z,30.45
2022-08-17T02:57:58.363Z,30.40
2022-08-17T02:59:09.959Z,30.34
2022-08-17T03:00:19.826Z,30.30
2022-08-17T03:01:27.502Z,30.24
2022-08-17T03:02:40.420Z,30.20
2022-08-17T03:03:48.615Z,30.15
2022-08-17T03:04:57.805Z,30.09
2022-08-17T03:06:05.207Z,30.05
2022-08-17T03:07:11.434Z,30.00
2022-08-17T03:08:18.710Z,29.95
2022-08-17T03:09:24.506Z,29.89
2022-08-17T03:10:30.815Z,29.84
2022-08-17T03:11:36.752Z,29.78
2022-08-17T03:12:45.175Z,29.72
2022-08-17T03:13:52.047Z,29.65
2022-08-17T03:14:59.397Z,29.58
2022-08-17T03:16:05.299Z,29.50
2022-08-17T03:17:17.166Z,29.43
2022-08-17T03:18:25.981Z,29.35
2022-08-17T03:19:33.080Z,29.28
2022-08-17T03:20:39.452Z,29.22
2022-08-17T03:21:47.353Z,29.15
2022-08-17T03:23:05.656Z,29.08
2022-08-17T03:24:15.835Z,29.02
2022-08-17T03:25:36.995Z,28.96
2022-08-17T03:26:48.506Z,28.91
2022-08-17T03:27:58.283Z,28.85
2022-08-17T03:29:04.936Z,28.80
2022-08-17T03:30:14.167Z,28.74
2022-08-17T03:31:21.948Z,28.70
2022-08-17T03:32:28.408Z,28.64
2022-08-17T03:33:35.939Z,28.60
2022-08-17T03:34:44.122Z,28.56
2022-08-17T03:35:52.359Z,28.51
2022-08-17T03:36:59.774Z,28.48
2022-08-17T03:38:07.759Z,28.44
2022-08-17T03:39:13.930Z,28.42
2022-08-17T03:40:55.026Z,28.39
2022-08-17T03:41:53.812Z,28.36
2022-08-17T03:43:10.062Z,28.33
2022-08-17T03:44:16.754Z,28.29
2022-08-17T03:45:48.180Z,28.27
2022-08-17T03:47:19.919Z,28.23
2022-08-17T03:48:45.769Z,28.18
2022-08-17T03:50:16.553Z,28.13
2022-08-17T03:51:44.202Z,28.08
2022-08-17T03:53:10.687Z,28.02
2022-08-17T03:54:37.371Z,27.95
2022-08-17T03:56:05.431Z,27.89
2022-08-17T03:57:12.408Z,27.83
2022-08-17T03:58:18.302Z,27.78
2022-08-17T03:59:25.002Z,27.74
2022-08-17T04:00:36.076Z,27.70
2022-08-17T04:01:51.229Z,27.64
2022-08-17T04:03:01.827Z,27.60
2022-08-17T04:04:10.625Z,27.57
2022-08-17T04:05:17.966Z,27.52
2022-08-17T04:06:32.245Z,27.48
2022-08-17T04:07:39.864Z,27.43
2022-08-17T04:08:46.823Z,27.38
2022-08-17T04:09:55.126Z,27.34
2022-08-17T04:11:02.239Z,27.29
2022-08-17T04:12:19.747Z,27.25
2022-08-17T04:13:28.512Z,27.20
2022-08-17T04:14:52.945Z,27.15
2022-08-17T04:16:08.511Z,27.10
2022-08-17T04:17:31.258Z,27.05
2022-08-17T04:18:41.232Z,27.00
2022-08-17T04:19:53.255Z,26.96
2022-08-17T04:21:00.379Z,26.93
2022-08-17T04:22:06.697Z,26.89
2022-08-17T04:23:17.619Z,26.86
2022-08-17T04:24:24.011Z,26.82
2022-08-17T04:25:31.079Z,26.79
2022-08-17T04:26:52.128Z,26.76
2022-08-17T04:28:02.321Z,26.70
2022-08-17T04:29:08.525Z,26.65
2022-08-17T04:30:14.560Z,26.62
2022-08-17T04:31:20.095Z,26.58
2022-08-17T04:33:00.470Z,26.54
2022-08-17T04:33:52.844Z,26.49
2022-08-17T04:35:01.401Z,26.46
2022-08-17T04:36:09.532Z,26.43
2022-08-17T04:37:18.363Z,26.39
2022-08-17T04:38:28.287Z,26.35
2022-08-17T04:39:36.103Z,26.32
2022-08-17T04:41:09.180Z,26.28
2022-08-17T04:42:18.681Z,26.23
2022-08-17T04:43:31.709Z,26.20
2022-08-17T04:44:39.627Z,26.16
2022-08-17T04:46:07.120Z,26.13
2022-08-17T04:47:15.716Z,26.10
2022-08-17T04:48:23.130Z,26.08
2022-08-17T04:49:38.477Z,26.06
2022-08-17T04:50:48.367Z,26.04
2022-08-17T04:51:56.240Z,26.01
2022-08-17T04:53:05.903Z,25.98
2022-08-17T04:54:18.704Z,25.96
2022-08-17T04:55:25.203Z,25.92
2022-08-17T04:56:31.311Z,25.90
2022-08-17T04:57:41.815Z,25.87
2022-08-17T04:58:52.672Z,25.84
2022-08-17T04:59:59.802Z,25.82
2022-08-17T05:01:07.188Z,25.81
2022-08-17T05:02:14.743Z,25.79
2022-08-17T05:03:22.443Z,25.77
2022-08-17T05:04:35.182Z,25.76
2022-08-17T05:05:50.678Z,25.74
2022-08-17T05:06:59.868Z,25.71
2022-08-17T05:08:08.763Z,25.69
2022-08-17T05:09:15.853Z,25.67
2022-08-17T05:10:22.584Z,25.65
2022-08-17T05:11:31.690Z,25.63
2022-08-17T05:12:39.852Z,25.62
2022-08-17T05:13:51.455Z,25.61
2022-08-17T05:15:00.416Z,25.61
2022-08-17T05:16:07.762Z,25.62
2022-08-17T05:17:18.978Z,25.62
2022-08-17T05:18:26.617Z,25.61
2022-08-17T05:19:33.271Z,25.61
2022-08-17T05:20:40.636Z,25.58
2022-08-17T05:21:51.094Z,25.55
2022-08-17T05:22:59.842Z,25.49
2022-08-17T05:24:07.124Z,25.43
2022-08-17T05:25:40.131Z,25.36
2022-08-17T05:26:48.614Z,25.29
2022-08-17T05:27:57.425Z,25.26
2022-08-17T05:29:06.455Z,25.24
2022-08-17T05:30:13.545Z,25.22
2022-08-17T05:31:20.062Z,25.20
2022-08-17T05:32:39.364Z,25.18
2022-08-17T05:33:50.417Z,25.16
2022-08-17T05:35:01.029Z,25.13
2022-08-17T05:36:08.882Z,25.10
2022-08-17T05:37:37.179Z,25.06
2022-08-17T05:38:45.034Z,25.03
2022-08-17T05:39:52.551Z,24.98
2022-08-17T05:40:59.843Z,24.95
2022-08-17T05:42:06.509Z,24.91
2022-08-17T05:43:23.263Z,24.87
2022-08-17T05:44:29.922Z,24.83
2022-08-17T05:45:55.839Z,24.79
2022-08-17T05:47:04.109Z,24.76
2022-08-17T05:48:12.428Z,24.75
2022-08-17T05:49:20.678Z,24.74
2022-08-17T05:50:29.957Z,24.73
2022-08-17T05:51:59.426Z,24.73
2022-08-17T05:53:20.695Z,24.71
2022-08-17T05:55:01.496Z,24.68
2022-08-17T05:56:30.560Z,24.64
2022-08-17T05:58:20.608Z,24.57
2022-08-17T05:59:43.745Z,24.49
2022-08-17T06:01:03.083Z,24.43
2022-08-17T06:02:28.657Z,24.37
2022-08-17T06:03:45.760Z,24.30
2022-08-17T06:05:18.414Z,24.25
2022-08-17T06:06:31.248Z,24.19
2022-08-17T06:07:55.763Z,24.16
2022-08-17T06:09:13.942Z,24.11
2022-08-17T06:10:32.293Z,24.07
2022-08-17T06:11:59.742Z,24.03
2022-08-17T06:13:09.937Z,23.99
2022-08-17T06:14:49.990Z,23.96
2022-08-17T06:16:33.814Z,23.94
2022-08-17T06:17:34.313Z,23.90
2022-08-17T06:18:58.258Z,23.89
2022-08-17T06:20:09.508Z,23.87
2022-08-17T06:21:19.658Z,23.84
2022-08-17T06:22:39.907Z,23.84
2022-08-17T06:24:01.422Z,23.87
2022-08-17T06:25:10.898Z,23.89
2022-08-17T06:26:37.249Z,23.90
2022-08-17T06:27:57.228Z,23.91
2022-08-17T06:29:42.770Z,23.94
2022-08-17T06:31:01.057Z,23.95
2022-08-17T06:32:12.647Z,23.97
2022-08-17T06:33:29.219Z,23.97
2022-08-17T06:34:36.622Z,23.95
2022-08-17T06:36:09.187Z,23.96
2022-08-17T06:37:57.765Z,23.95
2022-08-17T06:39:41.135Z,23.93
2022-08-17T06:41:13.459Z,23.91
2022-08-17T06:43:04.982Z,23.89
2022-08-17T06:44:03.451Z,23.85
2022-08-17T06:45:19.974Z,23.79
2022-08-17T06:46:49.337Z,23.73
2022-08-17T06:48:18.015Z,23.64
2022-08-17T06:50:03.080Z,23.54
2022-08-17T06:51:34.996Z,23.46
2022-08-17T06:53:09.665Z,23.38
2022-08-17T06:54:39.095Z,23.32
2022-08-17T06:56:06.492Z,23.25
2022-08-17T06:57:19.770Z,23.17
2022-08-17T06:58:29.581Z,23.11
2022-08-17T07:00:14.573Z,23.08
2022-08-17T07:01:25.803Z,23.00
2022-08-17T07:02:58.966Z,22.96
2022-08-17T07:04:21.934Z,22.91
2022-08-17T07:06:08.624Z,22.86
2022-08-17T07:07:32.878Z,22.80
2022-08-17T07:08:58.085Z,22.75
2022-08-17T07:10:05.451Z,22.71
2022-08-17T07:11:43.460Z,22.68
2022-08-17T07:12:52.488Z,22.65
2022-08-17T07:14:06.119Z,22.61
2022-08-17T07:15:22.949Z,22.60
2022-08-17T07:16:33.607Z,22.59
2022-08-17T07:17:47.821Z,22.57
2022-08-17T07:18:55.819Z,22.56
2022-08-17T07:20:10.175Z,22.54
2022-08-17T07:21:45.068Z,22.53
2022-08-17T07:23:02.417Z,22.53
2022-08-17T07:25:02.594Z,22.53
2022-08-17T07:26:09.910Z,22.55
2022-08-17T07:27:31.801Z,22.57
2022-08-17T07:28:38.528Z,22.59
2022-08-17T07:29:51.225Z,22.61
2022-08-17T07:31:00.426Z,22.66
2022-08-17T07:32:07.874Z,22.68
2022-08-17T07:33:20.703Z,22.72
2022-08-17T07:34:26.544Z,22.75
2022-08-17T07:35:45.307Z,22.77
2022-08-17T07:37:05.803Z,22.79
2022-08-17T07:38:25.603Z,22.81
2022-08-17T07:39:34.676Z,22.82
2022-08-17T07:41:08.971Z,22.81
2022-08-17T07:42:15.435Z,22.79
2022-08-17T07:43:42.663Z,22.78
2022-08-17T07:44:55.093Z,22.77
2022-08-17T07:46:46.977Z,22.78
2022-08-17T07:48:12.391Z,22.76
2022-08-17T07:49:36.550Z,22.72
2022-08-17T07:50:43.529Z,22.69
2022-08-17T07:52:00.000Z,22.67
2022-08-17T07:53:24.746Z,22.65
2022-08-17T07:54:37.287Z,22.64
2022-08-17T07:55:43.665Z,22.63
2022-08-17T07:56:53.577Z,22.62
2022-08-17T07:58:00.798Z,22.60
2022-08-17T07:59:27.223Z,22.58
2022-08-17T08:00:40.044Z,22.55
2022-08-17T08:02:07.726Z,22.52
2022-08-17T08:03:32.979Z,22.48
2022-08-17T08:05:02.401Z,22.43
2022-08-17T08:06:22.395Z,22.40
2022-08-17T08:07:32.435Z,22.38
2022-08-17T08:08:44.539Z,22.36
2022-08-17T08:10:15.235Z,22.33
2022-08-17T08:11:35.656Z,22.30
2022-08-17T08:12:45.589Z,22.27
2022-08-17T08:13:52.793Z,22.26
2022-08-17T08:15:00.839Z,22.25
2022-08-17T08:16:28.005Z,22.25
2022-08-17T08:17:37.380Z,22.25
2022-08-17T08:18:54.258Z,22.25
2022-08-17T08:20:34.827Z,22.25
2022-08-17T08:22:12.724Z,22.23
2022-08-17T08:23:42.535Z,22.19
2022-08-17T08:25:06.244Z,22.17
2022-08-17T08:26:45.973Z,22.13
2022-08-17T08:28:23.261Z,22.08
2022-08-17T08:29:29.898Z,22.04
2022-08-17T08:30:44.726Z,22.02
2022-08-17T08:32:21.320Z,21.99
2022-08-17T08:33:33.074Z,21.95
2022-08-17T08:35:10.629Z,21.91
2022-08-17T08:36:56.938Z,21.88
2022-08-17T08:38:11.254Z,21.87
2022-08-17T08:39:28.839Z,21.86
2022-08-17T08:41:03.032Z,21.85
2022-08-17T08:42:39.167Z,21.83
2022-08-17T08:44:04.581Z,21.81
2022-08-17T08:45:42.382Z,21.79
2022-08-17T08:46:55.365Z,21.77
2022-08-17T08:48:52.835Z,21.77
2022-08-17T08:50:05.707Z,21.77
2022-08-17T08:51:24.530Z,21.80
2022-08-17T08:52:49.134Z,21.80
2022-08-17T08:54:14.924Z,21.82
2022-08-17T08:55:45.434Z,21.83
2022-08-17T08:57:29.124Z,21.84
2022-08-17T08:58:41.715Z,21.85
2022-08-17T09:00:16.263Z,21.86
2022-08-17T09:01:53.045Z,21.88
2022-08-17T09:03:18.441Z,21.91
2022-08-17T09:05:13.822Z,21.94
2022-08-17T09:06:37.540Z,21.95
2022-08-17T09:08:17.255Z,21.95
2022-08-17T09:09:50.325Z,21.96
2022-08-17T09:11:05.468Z,21.97
2022-08-17T09:12:48.914Z,21.98
2022-08-17T09:13:55.645Z,22.00
2022-08-17T09:15:18.617Z,22.00
2022-08-17T09:16:43.836Z,22.01
2022-08-17T09:19:02.199Z,22.01
2022-08-17T09:20:03.272Z,22.00
2022-08-17T09:21:33.849Z,22.00
2022-08-17T09:22:43.918Z,22.00
2022-08-17T09:24:12.232Z,22.00
2022-08-17T09:25:22.295Z,22.00
2022-08-17T09:26:31.513Z,22.01
2022-08-17T09:27:52.910Z,22.02
2022-08-17T09:29:10.535Z,22.03
2022-08-17T09:30:16.479Z,22.05
2022-08-17T09:31:31.269Z,22.06
2022-08-17T09:32:55.694Z,22.07
2022-08-17T09:34:06.315Z,22.07
2022-08-17T09:35:18.615Z,22.09
2022-08-17T09:36:34.627Z,22.10
2022-08-17T09:37:56.160Z,22.12
2022-08-17T09:39:11.137Z,22.13
2022-08-17T09:40:22.976Z,22.15
2022-08-17T09:41:48.966Z,22.16
2022-08-17T09:43:26.293Z,22.18
2022-08-17T09:44:44.819Z,22.19
2022-08-17T09:45:54.915Z,22.21
2022-08-17T09:47:27.544Z,22.22
2022-08-17T09:48:42.509Z,22.23
2022-08-17T09:49:50.027Z,22.24
2022-08-17T09:51:07.493Z,22.26
2022-08-17T09:52:30.905Z,22.27
2022-08-17T09:53:39.688Z,22.28
2022-08-17T09:54:46.135Z,22.27
2022-08-17T09:56:16.452Z,22.26
2022-08-17T09:57:30.220Z,22.23
2022-08-17T09:59:17.919Z,22.22
2022-08-17T10:00:28.131Z,22.20
2022-08-17T10:01:51.128Z,22.19
2022-08-17T10:03:10.548Z,22.17
2022-08-17T10:04:53.685Z,22.16
2022-08-17T10:06:28.763Z,22.13
2022-08-17T10:07:42.565Z,22.12
2022-08-17T10:09:21.039Z,22.12
2022-08-17T10:10:37.016Z,22.11
2022-08-17T10:12:17.111Z,22.09
2022-08-17T10:13:37.803Z,22.07
2022-08-17T10:15:07.719Z,22.05
2022-08-17T10:16:58.062Z,22.01
2022-08-17T10:18:16.794Z,21.98
2022-08-17T10:19:31.991Z,21.97
2022-08-17T10:21:21.765Z,21.97
2022-08-17T10:22:53.203Z,21.94
2022-08-17T10:25:21.598Z,21.93
2022-08-17T10:26:25.657Z,21.89
2022-08-17T10:27:56.700Z,21.86
2022-08-17T10:29:13.012Z,21.84
2022-08-17T10:30:19.708Z,21.81
2022-08-17T10:31:36.265Z,21.80
2022-08-17T10:32:57.057Z,21.78
2022-08-17T10:34:42.097Z,21.77
2022-08-17T10:36:08.712Z,21.73
2022-08-17T10:37:50.947Z,21.70
2022-08-17T10:39:32.369Z,21.65
2022-08-17T10:40:54.150Z,21.61
2022-08-17T10:42:03.586Z,21.59
2022-08-17T10:43:30.395Z,21.56
2022-08-17T10:45:20.167Z,21.51
2022-08-17T10:47:02.672Z,21.43
2022-08-17T10:48:13.346Z,21.38
2022-08-17T10:49:19.465Z,21.37
2022-08-17T10:51:02.724Z,21.37
2022-08-17T10:52:30.948Z,21.35
2022-08-17T10:53:36.796Z,21.32
2022-08-17T10:55:07.746Z,21.31
2022-08-17T10:56:17.989Z,21.29
2022-08-17T10:57:32.843Z,21.29
2022-08-17T10:58:55.775Z,21.29
2022-08-17T11:00:27.452Z,21.29
2022-08-17T11:02:01.650Z,21.28
2022-08-17T11:03:25.909Z,21.29
2022-08-17T11:04:37.606Z,21.29
2022-08-17T11:06:13.123Z,21.31
2022-08-17T11:07:31.286Z,21.32
2022-08-17T11:08:58.048Z,21.33
2022-08-17T11:10:10.481Z,21.34
2022-08-17T11:11:37.138Z,21.36
2022-08-17T11:13:05.697Z,21.36
2022-08-17T11:14:55.756Z,21.37
2022-08-17T11:16:25.816Z,21.37
2022-08-17T11:17:53.690Z,21.40
2022-08-17T11:19:36.282Z,21.44
2022-08-17T11:20:55.981Z,21.47
2022-08-17T11:22:32.732Z,21.49
2022-08-17T11:24:07.433Z,21.50
2022-08-17T11:25:35.871Z,21.52
2022-08-17T11:26:48.517Z,21.52
2022-08-17T11:28:06.722Z,21.53
2022-08-17T11:29:26.234Z,21.52
2022-08-17T11:30:45.213Z,21.49
2022-08-17T11:32:03.518Z,21.48
2022-08-17T11:33:33.940Z,21.46
2022-08-17T11:34:45.262Z,21.44
2022-08-17T11:35:52.501Z,21.43
2022-08-17T11:37:26.659Z,21.42
2022-08-17T11:39:00.520Z,21.44
2022-08-17T11:40:16.212Z,21.44
2022-08-17T11:41:34.226Z,21.44
2022-08-17T11:43:11.969Z,21.43
2022-08-17T11:44:55.198Z,21.42
2022-08-17T11:46:51.702Z,21.40
2022-08-17T11:48:44.971Z,21.38
2022-08-17T11:50:37.615Z,21.36
2022-08-17T11:51:56.547Z,21.33
2022-08-17T11:53:05.449Z,21.32
2022-08-17T11:54:34.610Z,21.31
2022-08-17T11:55:44.851Z,21.28
2022-08-17T11:56:53.673Z,21.25
2022-08-17T11:58:03.424Z,21.22
2022-08-17T11:59:44.336Z,21.19
2022-08-17T12:00:58.875Z,21.13
2022-08-17T12:02:32.353Z,21.08
2022-08-17T12:03:54.190Z,21.00
2022-08-17T12:05:24.079Z,20.93
2022-08-17T12:06:41.621Z,20.86
2022-08-17T12:08:06.305Z,20.80
2022-08-17T12:09:21.452Z,20.73
2022-08-17T12:10:33.151Z,20.68
2022-08-17T12:11:55.433Z,20.65
2022-08-17T12:13:15.971Z,20.62
2022-08-17T12:14:45.429Z,20.61
2022-08-17T12:15:56.985Z,20.58
2022-08-17T12:17:09.133Z,20.59
2022-08-17T12:18:32.670Z,20.59
2022-08-17T12:19:39.690Z,20.59
2022-08-17T12:20:45.583Z,20.59
2022-08-17T12:22:11.010Z,20.57
2022-08-17T12:23:37.849Z,20.54
2022-08-17T12:24:57.659Z,20.53
2022-08-17T12:26:24.389Z,20.53
2022-08-17T12:28:04.398Z,20.50
2022-08-17T12:29:18.469Z,20.47
2022-08-17T12:30:41.378Z,20.44
2022-08-17T12:31:49.985Z,20.43
2022-08-17T12:32:56.077Z,20.43
2022-08-17T12:34:04.863Z,20.45
2022-08-17T12:35:33.758Z,20.47
2022-08-17T12:36:41.975Z,20.48
2022-08-17T12:37:50.240Z,20.48
2022-08-17T12:39:13.705Z,20.47
2022-08-17T12:40:29.976Z,20.44
2022-08-17T12:41:41.393Z,20.42
2022-08-17T12:42:59.792Z,20.41
2022-08-17T12:44:50.437Z,20.40
2022-08-17T12:46:00.262Z,20.37
2022-08-17T12:47:22.194Z,20.36
2022-08-17T12:48:35.054Z,20.36
2022-08-17T12:49:43.336Z,20.35
2022-08-17T12:50:50.024Z,20.36
2022-08-17T12:52:16.723Z,20.37
2022-08-17T12:53:27.724Z,20.38
2022-08-17T12:55:07.619Z,20.38
2022-08-17T12:56:13.903Z,20.38
2022-08-17T12:57:23.443Z,20.38
2022-08-17T12:58:37.060Z,20.37
2022-08-17T12:59:59.292Z,20.35
2022-08-17T13:01:10.053Z,20.33
2022-08-17T13:02:56.961Z,20.30
2022-08-17T13:04:04.253Z,20.28
2022-08-17T13:05:35.696Z,20.26
2022-08-17T13:06:47.785Z,20.25
2022-08-17T13:07:55.632Z,20.24
2022-08-17T13:09:40.388Z,20.24
2022-08-17T13:10:56.222Z,20.23
2022-08-17T13:12:03.440Z,20.23
2022-08-17T13:13:28.390Z,20.23
2022-08-17T13:14:34.658Z,20.22
2022-08-17T13:15:52.099Z,20.22
2022-08-17T13:17:01.622Z,20.22
2022-08-17T13:18:10.002Z,20.22
2022-08-17T13:19:39.804Z,20.21
2022-08-17T13:21:00.368Z,20.21
2022-08-17T13:22:11.981Z,20.21
2022-08-17T13:23:22.592Z,20.22
2022-08-17T13:24:37.932Z,20.22
2022-08-17T13:26:05.824Z,20.24
2022-08-17T13:27:15.943Z,20.27
2022-08-17T13:28:29.786Z,20.31
2022-08-17T13:29:51.613Z,20.35
2022-08-17T13:31:51.864Z,20.39
2022-08-17T13:33:04.892Z,20.50
2022-08-17T13:34:34.816Z,20.62
2022-08-17T13:35:52.163Z,20.78
2022-08-17T13:37:26.870Z,20.91
2022-08-17T13:38:52.102Z,21.06
2022-08-17T13:40:13.415Z,21.21
2022-08-17T13:41:37.115Z,21.33
2022-08-17T13:42:54.278Z,21.41
2022-08-17T13:44:02.496Z,21.45
2022-08-17T13:45:40.868Z,21.52
2022-08-17T13:46:52.500Z,21.71
2022-08-17T13:48:12.507Z,21.97
2022-08-17T13:49:20.867Z,22.27
2022-08-17T13:50:27.223Z,22.47
2022-08-17T13:52:03.169Z,22.70
2022-08-17T13:53:19.112Z,23.01
2022-08-17T13:54:25.109Z,23.26
2022-08-17T13:55:31.831Z,23.47
2022-08-17T13:57:01.720Z,23.66
2022-08-17T13:58:07.624Z,23.84
2022-08-17T13:59:14.989Z,24.02
2022-08-17T14:00:31.555Z,24.17
2022-08-17T14:01:53.552Z,24.35
2022-08-17T14:03:02.391Z,24.53
2022-08-17T14:04:12.734Z,24.66
2022-08-17T14:05:18.731Z,24.78
2022-08-17T14:06:52.236Z,24.85
2022-08-17T14:08:06.728Z,24.90
2022-08-17T14:09:15.622Z,24.98
2022-08-17T14:10:22.353Z,25.08
2022-08-17T14:11:29.947Z,25.19
2022-08-17T14:12:37.126Z,25.30
2022-08-17T14:13:44.688Z,25.41
2022-08-17T14:14:51.208Z,25.46
2022-08-17T14:15:57.688Z,25.51
2022-08-17T14:17:03.927Z,25.54
2022-08-17T14:18:09.754Z,25.53
2022-08-17T14:19:16.440Z,25.52
2022-08-17T14:20:23.022Z,25.48
2022-08-17T14:21:30.144Z,25.45
2022-08-17T14:22:38.259Z,25.43
2022-08-17T14:23:54.281Z,25.45
2022-08-17T14:25:04.451Z,25.46
2022-08-17T14:26:17.117Z,25.58
2022-08-17T14:27:28.481Z,25.72
2022-08-17T14:28:36.386Z,25.91
2022-08-17T14:29:42.874Z,26.17
2022-08-17T14:30:49.091Z,26.46
2022-08-17T14:31:55.215Z,26.74
2022-08-17T14:33:02.990Z,27.04
2022-08-17T14:34:10.949Z,27.37
2022-08-17T14:35:17.730Z,27.63
2022-08-17T14:36:25.040Z,27.86
2022-08-17T14:37:30.827Z,28.08
2022-08-17T14:38:38.917Z,28.27
2022-08-17T14:39:46.859Z,28.37
2022-08-17T14:40:54.209Z,28.44
2022-08-17T14:42:02.146Z,28.57
2022-08-17T14:43:08.689Z,28.72
2022-08-17T14:44:17.577Z,28.84
2022-08-17T14:45:30.421Z,28.93
2022-08-17T14:46:45.195Z,28.95
2022-08-17T14:47:53.343Z,28.97
2022-08-17T14:49:03.580Z,29.08
2022-08-17T14:50:14.362Z,29.23
2022-08-17T14:51:27.001Z,29.38
2022-08-17T14:52:34.712Z,29.56
2022-08-17T14:53:47.157Z,29.74
2022-08-17T14:54:54.701Z,29.88
2022-08-17T14:56:02.927Z,29.89
2022-08-17T14:57:26.197Z,29.93
2022-08-17T14:58:40.057Z,30.00
2022-08-17T14:59:54.614Z,30.12
2022-08-17T15:01:04.101Z,30.30
2022-08-17T15:02:11.407Z,30.57
2022-08-17T15:03:18.518Z,30.87
2022-08-17T15:04:25.501Z,31.09
2022-08-17T15:05:39.760Z,31.17
2022-08-17T15:06:51.889Z,31.15
2022-08-17T15:07:58.756Z,31.10
2022-08-17T15:09:05.212Z,31.06
2022-08-17T15:10:14.950Z,31.07
2022-08-17T15:11:21.632Z,31.04
2022-08-17T15:12:32.061Z,31.03
2022-08-17T15:13:52.673Z,31.02
2022-08-17T15:15:01.778Z,31.00
2022-08-17T15:16:14.470Z,30.99
2022-08-17T15:17:22.289Z,30.98
2022-08-17T15:18:28.514Z,31.01
2022-08-17T15:19:35.822Z,31.12
2022-08-17T15:20:41.963Z,31.29
2022-08-17T15:21:49.272Z,31.38
2022-08-17T15:22:59.527Z,31.45
2022-08-17T15:24:06.868Z,31.56
2022-08-17T15:25:12.783Z,31.65
2022-08-17T15:26:21.760Z,31.66
2022-08-17T15:27:37.802Z,31.64
2022-08-17T15:28:49.001Z,31.58
2022-08-17T15:30:03.342Z,31.54
2022-08-17T15:31:10.804Z,31.51
2022-08-17T15:32:32.438Z,31.54
2022-08-17T15:33:39.139Z,31.60
2022-08-17T15:34:45.986Z,31.77
2022-08-17T15:35:54.776Z,32.02
2022-08-17T15:37:02.452Z,32.24
2022-08-17T15:38:12.101Z,32.46
2022-08-17T15:39:19.909Z,32.60
2022-08-17T15:40:26.262Z,32.64
2022-08-17T15:41:34.229Z,32.66
2022-08-17T15:42:44.618Z,32.69
2022-08-17T15:43:52.769Z,32.69
2022-08-17T15:45:01.172Z,32.69
2022-08-17T15:46:17.500Z,32.77
2022-08-17T15:47:23.414Z,32.84
2022-08-17T15:48:42.520Z,32.91
2022-08-17T15:49:56.640Z,33.04
2022-08-17T15:51:07.281Z,33.20
2022-08-17T15:52:22.517Z,33.33
2022-08-17T15:53:28.650Z,33.48
2022-08-17T15:54:36.156Z,33.73
2022-08-17T15:55:46.304Z,33.96
2022-08-17T15:56:54.114Z,34.09
2022-08-17T15:58:01.713Z,34.22
2022-08-17T15:59:10.581Z,34.42
2022-08-17T16:00:19.722Z,34.65
2022-08-17T16:02:16.300Z,34.82
2022-08-17T16:03:44.716Z,34.99
2022-08-17T16:04:29.663Z,35.17
2022-08-17T16:05:40.885Z,35.41
2022-08-17T16:06:48.253Z,35.64
2022-08-17T16:07:54.990Z,35.84
2022-08-17T16:09:01.669Z,35.83
2022-08-17T16:10:12.299Z,35.67
2022-08-17T16:11:22.325Z,35.56
2022-08-17T16:12:29.230Z,35.54
2022-08-17T16:13:40.939Z,35.52
2022-08-17T16:14:48.893Z,35.47
2022-08-17T16:15:58.067Z,35.47
2022-08-17T16:17:39.643Z,35.49
2022-08-17T16:18:37.510Z,35.37
2022-08-17T16:19:44.185Z,35.41
2022-08-17T16:20:54.641Z,35.50
2022-08-17T16:22:04.638Z,35.61
2022-08-17T16:23:20.027Z,35.81
2022-08-17T16:24:27.555Z,35.91